Time;durP1;ratioP1;P1;durP2;ratioP2;P2;SDS_P1;SDS_P2;PMS_P1;PMS_P2;Temp;Humidity;BMP_temperature;BMP_pressure;BME280_temperature;BME280_humidity;BME280_pressure;Samples;Min_cycle;Max_cycle;Signal;HPM_P1;HPM_P2
2023/10/08 00:00:49;;;;;;;9.50;4.57;;;;;;;;;;5117137;28;20224;-62
2023/10/08 00:03:17;;;;;;;10.43;4.30;;;;;;;;;;5116135;28;20231;-62
2023/10/08 00:05:47;;;;;;;10.37;4.20;;;;;;;;;;5122853;27;20201;-62
2023/10/08 00:08:16;;;;;;;6.30;4.23;;;;;;;;;;5112288;28;20208;-62
2023/10/08 00:10:45;;;;;;;7.10;4.13;;;;;;;;;;5123141;27;20220;-62
2023/10/08 00:13:15;;;;;;;5.87;3.63;;;;;;;;;;5110643;28;20315;-62
2023/10/08 00:15:51;;;;;;;7.47;3.90;;;;;;;;;;5120631;28;20205;-63
2023/10/08 00:18:19;;;;;;;8.87;4.07;;;;;;;;;;5121237;28;20233;-62
2023/10/08 00:20:54;;;;;;;6.23;3.60;;;;;;;;;;5121035;28;20312;-62
2023/10/08 00:23:25;;;;;;;6.03;3.63;;;;;;;;;;5121764;27;20556;-64
2023/10/08 00:25:54;;;;;;;6.50;3.67;;;;;;;;;;5121072;28;20212;-62
2023/10/08 00:28:22;;;;;;;6.67;3.40;;;;;;;;;;5120652;28;20568;-64
2023/10/08 00:30:53;;;;;;;5.23;3.50;;;;;;;;;;5107585;28;20256;-62
2023/10/08 00:33:21;;;;;;;10.20;4.27;;;;;;;;;;5120420;28;20232;-62
2023/10/08 00:35:49;;;;;;;7.17;3.80;;;;;;;;;;5120842;28;20260;-62
2023/10/08 00:38:20;;;;;;;9.10;4.00;;;;;;;;;;5120465;28;20215;-62
2023/10/08 00:40:50;;;;;;;7.90;3.60;;;;;;;;;;5120458;27;20684;-63
2023/10/08 00:43:31;;;;;;;6.50;3.63;;;;;;;;;;5120468;28;20288;-62
2023/10/08 00:46:00;;;;;;;6.83;3.63;;;;;;;;;;5120669;28;20232;-63
2023/10/08 00:48:29;;;;;;;9.23;4.03;;;;;;;;;;5120625;28;20239;-63
2023/10/08 00:51:10;;;;;;;6.70;3.47;;;;;;;;;;5119860;28;20692;-63
2023/10/08 00:53:39;;;;;;;5.97;3.80;;;;;;;;;;5119925;28;20262;-64
2023/10/08 00:56:12;;;;;;;8.33;3.90;;;;;;;;;;5120464;28;20262;-64
2023/10/08 00:58:41;;;;;;;10.17;3.80;;;;;;;;;;5120495;28;20269;-64
2023/10/08 01:01:11;;;;;;;9.17;4.30;;;;;;;;;;5120056;27;20688;-63
2023/10/08 01:03:44;;;;;;;7.77;3.77;;;;;;;;;;5120230;28;20679;-63
2023/10/08 01:06:17;;;;;;;6.50;4.00;;;;;;;;;;5117077;28;20196;-63
2023/10/08 01:08:47;;;;;;;6.73;4.27;;;;;;;;;;5119409;28;20268;-63
2023/10/08 01:11:22;;;;;;;16.17;3.90;;;;;;;;;;5119482;28;20225;-64
2023/10/08 01:13:50;;;;;;;8.47;4.57;;;;;;;;;;5119543;28;20224;-64
2023/10/08 01:16:18;;;;;;;9.67;4.93;;;;;;;;;;5119309;28;20208;-64
2023/10/08 01:18:50;;;;;;;8.40;5.27;;;;;;;;;;5119628;28;20205;-64
2023/10/08 01:21:33;;;;;;;10.37;4.80;;;;;;;;;;5107274;28;20217;-63
2023/10/08 01:24:05;;;;;;;9.63;5.17;;;;;;;;;;5117233;28;20567;-63
2023/10/08 01:26:33;;;;;;;10.60;5.27;;;;;;;;;;5118400;28;20288;-63
2023/10/08 01:29:06;;;;;;;10.73;5.33;;;;;;;;;;5118486;28;20204;-63
2023/10/08 01:31:36;;;;;;;11.87;6.70;;;;;;;;;;5119626;28;20221;-63
2023/10/08 01:34:04;;;;;;;9.83;5.83;;;;;;;;;;5119790;28;20229;-63
2023/10/08 01:36:32;;;;;;;7.93;4.90;;;;;;;;;;5119784;28;20291;-63
2023/10/08 01:39:02;;;;;;;7.03;4.50;;;;;;;;;;5119266;28;20205;-63
2023/10/08 01:41:31;;;;;;;8.10;4.23;;;;;;;;;;5116421;28;20223;-63
2023/10/08 01:43:59;;;;;;;9.27;4.97;;;;;;;;;;5111445;28;20196;-63
2023/10/08 01:46:27;;;;;;;14.20;5.17;;;;;;;;;;5119089;28;20283;-63
2023/10/08 01:49:03;;;;;;;7.80;4.83;;;;;;;;;;5119235;28;20636;-63
2023/10/08 01:51:39;;;;;;;9.10;4.67;;;;;;;;;;5119790;28;20232;-63
2023/10/08 01:54:10;;;;;;;7.90;4.50;;;;;;;;;;5118617;28;20232;-63
2023/10/08 01:56:44;;;;;;;5.87;3.73;;;;;;;;;;5118695;28;20205;-63
2023/10/08 01:59:13;;;;;;;7.00;4.40;;;;;;;;;;5115674;28;20615;-63
2023/10/08 02:01:42;;;;;;;7.07;4.13;;;;;;;;;;5119059;28;20254;-63
2023/10/08 02:04:12;;;;;;;7.60;4.00;;;;;;;;;;5119108;28;20200;-63
2023/10/08 02:06:40;;;;;;;7.43;4.10;;;;;;;;;;5118945;28;20243;-63
2023/10/08 02:09:09;;;;;;;7.03;4.10;;;;;;;;;;5118643;28;20208;-63
2023/10/08 02:11:49;;;;;;;8.27;4.33;;;;;;;;;;5118801;28;20699;-64
2023/10/08 02:14:22;;;;;;;9.50;4.30;;;;;;;;;;5118221;28;20228;-63
2023/10/08 02:16:52;;;;;;;9.50;4.27;;;;;;;;;;5118793;28;20205;-63
2023/10/08 02:19:26;;;;;;;9.80;4.77;;;;;;;;;;5118970;28;20230;-63
2023/10/08 02:21:54;;;;;;;7.93;4.10;;;;;;;;;;5118633;28;20303;-63
2023/10/08 02:24:24;;;;;;;7.67;3.70;;;;;;;;;;5118547;28;20226;-63
2023/10/08 02:26:54;;;;;;;5.47;3.30;;;;;;;;;;5118392;28;20296;-63
2023/10/08 02:29:27;;;;;;;6.17;4.07;;;;;;;;;;5118853;28;20205;-63
2023/10/08 02:31:55;;;;;;;6.60;3.90;;;;;;;;;;5117916;28;20224;-63
2023/10/08 02:34:23;;;;;;;7.40;3.43;;;;;;;;;;5118401;28;20252;-63
2023/10/08 02:36:51;;;;;;;5.80;3.90;;;;;;;;;;5117938;28;20201;-63
2023/10/08 02:39:25;;;;;;;5.93;3.40;;;;;;;;;;5118183;28;20212;-63
2023/10/08 02:41:59;;;;;;;6.57;3.60;;;;;;;;;;5118161;28;20680;-63
2023/10/08 02:44:27;;;;;;;7.27;3.77;;;;;;;;;;5118513;28;20205;-64
2023/10/08 02:46:55;;;;;;;6.37;4.00;;;;;;;;;;5118533;28;20253;-64
2023/10/08 02:49:23;;;;;;;8.83;3.87;;;;;;;;;;5117694;28;20730;-64
2023/10/08 02:51:53;;;;;;;7.40;3.30;;;;;;;;;;5118418;28;20228;-64
2023/10/08 02:54:23;;;;;;;5.50;3.50;;;;;;;;;;5117734;28;20228;-64
2023/10/08 02:56:58;;;;;;;5.53;3.57;;;;;;;;;;5118494;28;20205;-65
2023/10/08 02:59:38;;;;;;;6.07;3.70;;;;;;;;;;5118044;28;20266;-65
2023/10/08 03:02:13;;;;;;;6.47;3.70;;;;;;;;;;5118376;28;20230;-63
2023/10/08 03:04:41;;;;;;;6.93;3.80;;;;;;;;;;5117259;28;20253;-63
2023/10/08 03:07:20;;;;;;;6.00;3.97;;;;;;;;;;5118225;28;20292;-63
2023/10/08 03:09:50;;;;;;;6.97;3.63;;;;;;;;;;5117861;28;20269;-63
2023/10/08 03:12:19;;;;;;;7.83;3.53;;;;;;;;;;5118072;28;20643;-63
2023/10/08 03:15:01;;;;;;;9.90;4.13;;;;;;;;;;5118006;28;20760;-62
2023/10/08 03:17:29;;;;;;;6.47;3.40;;;;;;;;;;5118235;28;20215;-62
2023/10/08 03:20:27;;;;;;;10.47;3.60;;;;;;;;;;5118010;28;20205;-64
2023/10/08 03:22:46;;;;;;;6.13;3.63;;;;;;;;;;5110269;28;20571;-64
2023/10/08 03:25:16;;;;;;;9.07;3.70;;;;;;;;;;5119160;28;20260;-63
2023/10/08 03:27:48;;;;;;;6.17;3.93;;;;;;;;;;5117440;28;20642;-62
2023/10/08 03:30:16;;;;;;;5.90;3.03;;;;;;;;;;5110004;28;20217;-63
2023/10/08 03:32:45;;;;;;;8.00;3.40;;;;;;;;;;5113940;28;20756;-63
2023/10/08 03:35:14;;;;;;;6.13;3.20;;;;;;;;;;5115387;28;20221;-63
2023/10/08 03:37:46;;;;;;;6.73;3.57;;;;;;;;;;5117550;28;20657;-63
2023/10/08 03:40:32;;;;;;;5.40;3.17;;;;;;;;;;5113507;28;20213;-64
2023/10/08 03:43:02;;;;;;;6.57;3.50;;;;;;;;;;5113808;28;20220;-64
2023/10/08 03:45:54;;;;;;;6.33;3.07;;;;;;;;;;5114666;28;20204;-64
2023/10/08 03:48:22;;;;;;;6.87;3.20;;;;;;;;;;5117561;28;20208;-64
2023/10/08 03:50:56;;;;;;;7.30;3.70;;;;;;;;;;5121366;28;20217;-64
2023/10/08 03:53:25;;;;;;;8.47;3.43;;;;;;;;;;5118833;28;20229;-64
2023/10/08 03:55:55;;;;;;;5.53;3.30;;;;;;;;;;5118861;27;20768;-64
2023/10/08 03:58:29;;;;;;;7.17;3.53;;;;;;;;;;5118467;28;20200;-64
2023/10/08 04:01:08;;;;;;;4.97;3.13;;;;;;;;;;5113686;28;20225;-63
2023/10/08 04:03:57;;;;;;;5.13;3.30;;;;;;;;;;5111204;28;20240;-64
2023/10/08 04:06:30;;;;;;;3.93;2.57;;;;;;;;;;5112430;28;20209;-64
2023/10/08 04:09:11;;;;;;;4.77;2.87;;;;;;;;;;5110885;28;20200;-64
2023/10/08 04:11:51;;;;;;;10.97;3.97;;;;;;;;;;5118383;28;20248;-64
2023/10/08 04:14:24;;;;;;;5.43;2.97;;;;;;;;;;5116953;28;20260;-64
2023/10/08 04:16:53;;;;;;;4.37;2.97;;;;;;;;;;5109974;28;20224;-64
2023/10/08 04:19:26;;;;;;;4.90;3.07;;;;;;;;;;5111632;28;20220;-64
2023/10/08 04:21:55;;;;;;;5.63;3.20;;;;;;;;;;5110382;28;20221;-64
2023/10/08 04:24:34;;;;;;;5.43;3.50;;;;;;;;;;5116845;28;20197;-64
2023/10/08 04:27:05;;;;;;;6.80;3.50;;;;;;;;;;5117636;28;20199;-64
2023/10/08 04:29:37;;;;;;;5.93;3.70;;;;;;;;;;5120460;28;20562;-64
2023/10/08 04:32:11;;;;;;;7.83;3.17;;;;;;;;;;5113673;28;20208;-64
2023/10/08 04:34:46;;;;;;;7.67;3.43;;;;;;;;;;5120736;27;20208;-64
2023/10/08 04:37:19;;;;;;;5.67;3.33;;;;;;;;;;5120125;28;20276;-64
2023/10/08 04:39:54;;;;;;;6.30;3.43;;;;;;;;;;5120381;28;20258;-64
2023/10/08 04:42:25;;;;;;;6.23;3.00;;;;;;;;;;5120471;28;20204;-64
2023/10/08 04:44:57;;;;;;;6.80;2.57;;;;;;;;;;5120615;28;20208;-64
2023/10/08 04:47:32;;;;;;;6.80;2.90;;;;;;;;;;5119860;27;20213;-64
2023/10/08 04:50:04;;;;;;;4.50;3.07;;;;;;;;;;5120075;28;20228;-64
2023/10/08 04:52:34;;;;;;;6.80;3.10;;;;;;;;;;5120520;28;20212;-64
2023/10/08 04:55:12;;;;;;;5.43;3.53;;;;;;;;;;5119893;28;20604;-64
2023/10/08 04:57:42;;;;;;;4.97;2.60;;;;;;;;;;5120450;28;20204;-64
2023/10/08 05:00:15;;;;;;;6.00;3.00;;;;;;;;;;5119991;28;20232;-64
2023/10/08 05:02:49;;;;;;;4.70;2.77;;;;;;;;;;5120323;28;20208;-64
2023/10/08 05:05:23;;;;;;;5.10;2.87;;;;;;;;;;5119614;28;20239;-64
2023/10/08 05:08:17;;;;;;;11.63;3.60;;;;;;;;;;5120074;28;20211;-64
2023/10/08 05:11:00;;;;;;;8.07;2.90;;;;;;;;;;5119983;28;20256;-64
2023/10/08 05:13:33;;;;;;;5.93;3.13;;;;;;;;;;5120170;28;20270;-64
2023/10/08 05:16:29;;;;;;;7.67;2.73;;;;;;;;;;5119770;28;20277;-64
2023/10/08 05:19:37;;;;;;;5.87;3.50;;;;;;;;;;5120011;28;20212;-64
2023/10/08 05:22:17;;;;;;;5.63;3.07;;;;;;;;;;5118807;28;20237;-64
2023/10/08 05:25:07;;;;;;;6.77;3.30;;;;;;;;;;5119734;28;20212;-64
2023/10/08 05:30:41;;;;;;;8.77;3.43;;;;;;;;;;5076650;28;20226;-64
2023/10/08 05:33:13;;;;;;;6.03;3.57;;;;;;;;;;5112796;28;20209;-64
2023/10/08 05:35:54;;;;;;;6.37;3.10;;;;;;;;;;5107788;28;20221;-64
2023/10/08 05:38:22;;;;;;;7.90;3.20;;;;;;;;;;5118654;28;20219;-64
2023/10/08 05:41:16;;;;;;;7.20;2.97;;;;;;;;;;5119202;28;20227;-64
2023/10/08 05:44:13;;;;;;;5.17;3.00;;;;;;;;;;5114250;28;20209;-64
2023/10/08 05:46:51;;;;;;;5.63;2.67;;;;;;;;;;5119520;28;20201;-64
2023/10/08 05:52:40;;;;;;;6.83;3.40;;;;;;;;;;5118606;28;20215;-62
2023/10/08 05:55:16;;;;;;;7.10;3.27;;;;;;;;;;5117724;28;20236;-62
2023/10/08 05:57:52;;;;;;;7.53;2.97;;;;;;;;;;5119045;28;20231;-61
2023/10/08 06:03:11;;;;;;;6.43;3.10;;;;;;;;;;5118975;28;20210;-61
2023/10/08 06:06:02;;;;;;;5.53;3.57;;;;;;;;;;5118785;28;20232;-60
2023/10/08 06:08:48;;;;;;;5.43;3.43;;;;;;;;;;5118155;28;20266;-59
2023/10/08 06:11:27;;;;;;;5.40;3.60;;;;;;;;;;5117853;28;20691;-59
2023/10/08 06:14:00;;;;;;;7.63;3.63;;;;;;;;;;5117870;28;20300;-61
2023/10/08 06:16:43;;;;;;;7.60;3.40;;;;;;;;;;5118512;28;20220;-62
2023/10/08 06:19:11;;;;;;;4.93;3.27;;;;;;;;;;5118352;28;20252;-61
2023/10/08 06:21:42;;;;;;;8.90;3.83;;;;;;;;;;5118474;28;20248;-60
2023/10/08 06:24:10;;;;;;;10.63;4.00;;;;;;;;;;5118507;28;20268;-58
2023/10/08 06:26:42;;;;;;;6.77;4.43;;;;;;;;;;5121658;27;20647;-59
2023/10/08 06:29:26;;;;;;;5.60;4.10;;;;;;;;;;5120332;27;20198;-59
2023/10/08 06:31:55;;;;;;;7.53;4.23;;;;;;;;;;5118353;28;20742;-60
2023/10/08 06:34:27;;;;;;;9.47;4.80;;;;;;;;;;5118444;28;20283;-60
2023/10/08 06:36:59;;;;;;;8.20;4.60;;;;;;;;;;5107728;28;20223;-60
2023/10/08 06:39:33;;;;;;;7.80;4.30;;;;;;;;;;5109188;28;20223;-60
2023/10/08 06:42:00;;;;;;;6.30;4.07;;;;;;;;;;5114304;28;20225;-59
2023/10/08 06:44:28;;;;;;;9.70;4.50;;;;;;;;;;5115161;27;20197;-59
2023/10/08 06:46:58;;;;;;;8.90;4.33;;;;;;;;;;5116835;28;20193;-59
2023/10/08 06:49:26;;;;;;;7.83;3.80;;;;;;;;;;5114817;28;20196;-60
2023/10/08 06:51:54;;;;;;;7.57;3.77;;;;;;;;;;5118038;28;20229;-62
2023/10/08 06:54:24;;;;;;;8.13;3.83;;;;;;;;;;5117466;28;20315;-60
2023/10/08 06:56:53;;;;;;;6.07;3.90;;;;;;;;;;5117998;28;20229;-60
2023/10/08 06:59:23;;;;;;;5.97;3.97;;;;;;;;;;5117912;28;20208;-60
2023/10/08 07:01:53;;;;;;;7.27;4.70;;;;;;;;;;5117993;28;20224;-59
2023/10/08 07:04:21;;;;;;;6.23;3.80;;;;;;;;;;5117101;28;20210;-62
2023/10/08 07:06:51;;;;;;;8.47;4.30;;;;;;;;;;5117988;28;20593;-63
2023/10/08 07:09:29;;;;;;;10.90;4.47;;;;;;;;;;5117306;28;20209;-63
2023/10/08 07:12:05;;;;;;;6.00;4.17;;;;;;;;;;5117708;28;20760;-64
2023/10/08 07:14:33;;;;;;;6.30;4.17;;;;;;;;;;5118042;28;20200;-64
2023/10/08 07:17:08;;;;;;;8.27;4.63;;;;;;;;;;5114595;28;20228;-66
2023/10/08 07:19:38;;;;;;;9.20;4.13;;;;;;;;;;5117275;28;20643;-66
2023/10/08 07:22:17;;;;;;;5.73;3.80;;;;;;;;;;5113054;28;20200;-66
2023/10/08 07:24:50;;;;;;;7.93;4.20;;;;;;;;;;5111578;28;20205;-66
2023/10/08 07:27:24;;;;;;;7.67;4.27;;;;;;;;;;5111792;28;20196;-66
2023/10/08 07:29:55;;;;;;;8.93;3.83;;;;;;;;;;5117104;28;20228;-60
2023/10/08 07:32:25;;;;;;;7.73;4.03;;;;;;;;;;5121695;28;20308;-61
2023/10/08 07:35:02;;;;;;;5.90;3.77;;;;;;;;;;5121456;28;20614;-62
2023/10/08 07:37:32;;;;;;;7.57;4.57;;;;;;;;;;5120776;28;20248;-61
2023/10/08 07:40:03;;;;;;;8.17;4.43;;;;;;;;;;5121632;28;20636;-61
2023/10/08 07:42:32;;;;;;;9.10;4.10;;;;;;;;;;5121482;28;20207;-61
2023/10/08 07:45:00;;;;;;;6.57;3.50;;;;;;;;;;5121311;28;20215;-61
2023/10/08 07:47:28;;;;;;;4.87;3.63;;;;;;;;;;5121534;28;20201;-61
2023/10/08 07:49:58;;;;;;;7.67;4.40;;;;;;;;;;5121133;28;20786;-67
2023/10/08 07:52:26;;;;;;;6.13;4.53;;;;;;;;;;5121373;28;20205;-67
2023/10/08 07:54:54;;;;;;;10.47;5.83;;;;;;;;;;5120107;27;20245;-67
2023/10/08 07:57:26;;;;;;;5.33;3.70;;;;;;;;;;5121142;28;20327;-68
2023/10/08 08:00:01;;;;;;;7.27;3.80;;;;;;;;;;5121257;28;20204;-68
2023/10/08 08:02:31;;;;;;;7.63;4.27;;;;;;;;;;5121394;28;20287;-64
2023/10/08 08:05:01;;;;;;;7.30;4.03;;;;;;;;;;5121355;28;20205;-65
2023/10/08 08:07:30;;;;;;;6.43;4.40;;;;;;;;;;5120471;28;20607;-64
2023/10/08 08:09:59;;;;;;;6.63;4.50;;;;;;;;;;5120790;28;20205;-64
2023/10/08 08:12:28;;;;;;;9.43;3.90;;;;;;;;;;5120564;27;20238;-65
2023/10/08 08:14:58;;;;;;;6.13;3.90;;;;;;;;;;5120899;28;20715;-64
2023/10/08 08:17:26;;;;;;;10.17;4.37;;;;;;;;;;5120565;28;20593;-64
2023/10/08 08:19:55;;;;;;;7.17;3.90;;;;;;;;;;5120686;28;20630;-65
2023/10/08 08:22:27;;;;;;;7.43;4.13;;;;;;;;;;5114693;28;20320;-65
2023/10/08 08:25:06;;;;;;;10.00;5.60;;;;;;;;;;5108645;28;20193;-64
2023/10/08 08:27:34;;;;;;;6.00;4.13;;;;;;;;;;5117921;28;20200;-64
2023/10/08 08:30:12;;;;;;;7.60;3.90;;;;;;;;;;5120354;28;20232;-65
2023/10/08 08:32:43;;;;;;;9.77;4.40;;;;;;;;;;5120527;28;20249;-66
2023/10/08 08:35:16;;;;;;;9.97;4.10;;;;;;;;;;5120029;28;20216;-67
2023/10/08 08:37:46;;;;;;;6.70;4.30;;;;;;;;;;5120058;28;20232;-66
2023/10/08 08:40:18;;;;;;;5.83;3.57;;;;;;;;;;5120138;27;20244;-66
2023/10/08 08:42:46;;;;;;;7.67;4.47;;;;;;;;;;5120062;28;20232;-66
2023/10/08 08:45:20;;;;;;;8.60;4.13;;;;;;;;;;5119697;28;20232;-66
2023/10/08 08:47:48;;;;;;;7.97;4.20;;;;;;;;;;5120116;28;20213;-67
2023/10/08 08:50:19;;;;;;;7.87;4.50;;;;;;;;;;5120681;28;20225;-66
2023/10/08 08:52:47;;;;;;;7.57;3.97;;;;;;;;;;5120296;28;20262;-66
2023/10/08 08:55:16;;;;;;;7.03;4.37;;;;;;;;;;5119961;28;20327;-67
2023/10/08 08:57:46;;;;;;;7.57;4.20;;;;;;;;;;5112369;28;20232;-66
2023/10/08 09:00:17;;;;;;;5.80;4.23;;;;;;;;;;5112261;28;20217;-66
2023/10/08 09:02:47;;;;;;;6.43;4.10;;;;;;;;;;5108090;28;20201;-67
2023/10/08 09:05:25;;;;;;;8.10;5.00;;;;;;;;;;5109540;28;20290;-67
2023/10/08 09:07:56;;;;;;;7.93;5.13;;;;;;;;;;5107815;28;20196;-67
2023/10/08 09:10:27;;;;;;;7.50;3.67;;;;;;;;;;5109188;28;20225;-67
2023/10/08 09:12:58;;;;;;;12.40;4.57;;;;;;;;;;5106350;28;20727;-68
2023/10/08 09:15:28;;;;;;;6.20;4.20;;;;;;;;;;5108869;28;20209;-67
2023/10/08 09:18:00;;;;;;;10.03;4.73;;;;;;;;;;5108924;28;20678;-67
2023/10/08 09:20:29;;;;;;;8.50;3.97;;;;;;;;;;5106800;28;20221;-67
2023/10/08 09:23:11;;;;;;;8.63;4.40;;;;;;;;;;5106965;28;20599;-68
2023/10/08 09:25:40;;;;;;;10.33;4.30;;;;;;;;;;5110241;28;20223;-67
2023/10/08 09:28:08;;;;;;;6.60;4.77;;;;;;;;;;5109625;28;20564;-65
2023/10/08 09:30:38;;;;;;;5.80;4.17;;;;;;;;;;5108803;28;20263;-65
2023/10/08 09:33:06;;;;;;;7.70;4.40;;;;;;;;;;5109809;28;20201;-67
2023/10/08 09:35:36;;;;;;;7.83;4.27;;;;;;;;;;5108660;28;20197;-66
2023/10/08 09:38:05;;;;;;;9.70;4.50;;;;;;;;;;5108041;28;20228;-66
2023/10/08 09:40:33;;;;;;;11.53;7.37;;;;;;;;;;5107180;28;20221;-66
2023/10/08 09:43:02;;;;;;;7.83;4.57;;;;;;;;;;5107928;28;20246;-67
2023/10/08 09:45:30;;;;;;;7.83;4.37;;;;;;;;;;5106461;28;20197;-65
2023/10/08 09:47:59;;;;;;;6.60;4.57;;;;;;;;;;5107073;28;20285;-64
2023/10/08 09:50:33;;;;;;;123.93;71.47;;;;;;;;;;5108964;28;20231;-63
2023/10/08 09:53:04;;;;;;;92.00;59.73;;;;;;;;;;5107529;28;20221;-63
2023/10/08 09:55:32;;;;;;;15.33;8.67;;;;;;;;;;5112256;28;20259;-63
2023/10/08 09:58:00;;;;;;;6.77;4.73;;;;;;;;;;5110804;28;20244;-63
2023/10/08 10:00:31;;;;;;;10.87;5.77;;;;;;;;;;5107948;28;20213;-64
2023/10/08 10:03:02;;;;;;;7.43;5.10;;;;;;;;;;5107977;28;20224;-64
2023/10/08 10:05:30;;;;;;;8.70;5.00;;;;;;;;;;5109855;28;20209;-64
2023/10/08 10:07:59;;;;;;;7.93;4.70;;;;;;;;;;5107748;28;20200;-64
2023/10/08 10:10:27;;;;;;;7.40;4.47;;;;;;;;;;5106660;28;20223;-64
2023/10/08 10:12:59;;;;;;;8.23;4.77;;;;;;;;;;5108032;28;20564;-63
2023/10/08 10:15:28;;;;;;;7.97;4.03;;;;;;;;;;5107358;28;20201;-64
2023/10/08 10:18:09;;;;;;;7.37;4.63;;;;;;;;;;5110422;28;20248;-64
2023/10/08 10:20:40;;;;;;;7.43;3.67;;;;;;;;;;5106216;28;20216;-63
2023/10/08 10:23:26;;;;;;;6.60;3.97;;;;;;;;;;5110998;28;20201;-65
2023/10/08 10:25:57;;;;;;;8.27;4.80;;;;;;;;;;5107329;28;20513;-63
2023/10/08 10:28:25;;;;;;;6.67;3.40;;;;;;;;;;5116974;28;20200;-63
2023/10/08 10:30:53;;;;;;;6.17;3.50;;;;;;;;;;5118016;28;20889;-63
2023/10/08 10:33:23;;;;;;;7.07;4.40;;;;;;;;;;5118314;28;20229;-64
2023/10/08 10:35:54;;;;;;;7.57;3.97;;;;;;;;;;5118923;27;20683;-63
2023/10/08 10:38:26;;;;;;;7.57;4.13;;;;;;;;;;5108762;28;20223;-63
2023/10/08 10:40:57;;;;;;;6.83;3.97;;;;;;;;;;5116038;28;20226;-63
2023/10/08 10:43:32;;;;;;;7.20;3.70;;;;;;;;;;5115133;27;20643;-64
2023/10/08 10:46:19;;;;;;;5.60;4.50;;;;;;;;;;5116714;27;20199;-65
2023/10/08 10:49:03;;;;;;;8.87;4.17;;;;;;;;;;5112112;28;20201;-64
2023/10/08 10:51:30;;;;;;;7.03;3.43;;;;;;;;;;5108948;28;20220;-64
2023/10/08 10:54:07;;;;;;;8.17;3.60;;;;;;;;;;5114175;28;20233;-64
2023/10/08 10:56:40;;;;;;;4.73;3.40;;;;;;;;;;5117055;28;20197;-62
2023/10/08 10:59:18;;;;;;;10.97;3.50;;;;;;;;;;5106241;28;20235;-62
2023/10/08 11:01:48;;;;;;;6.00;3.13;;;;;;;;;;5106462;28;20217;-63
2023/10/08 11:04:19;;;;;;;7.73;3.20;;;;;;;;;;5106497;28;20222;-62
2023/10/08 11:06:48;;;;;;;6.27;3.63;;;;;;;;;;5107437;28;20268;-61
2023/10/08 11:09:35;;;;;;;6.03;3.03;;;;;;;;;;5109491;28;20234;-61
2023/10/08 11:12:10;;;;;;;6.33;4.30;;;;;;;;;;5105538;28;20706;-63
2023/10/08 11:14:41;;;;;;;9.23;3.90;;;;;;;;;;5107242;28;20205;-63
2023/10/08 11:17:13;;;;;;;8.33;3.60;;;;;;;;;;5109904;28;20260;-63
2023/10/08 11:19:45;;;;;;;5.80;3.30;;;;;;;;;;5105399;28;20331;-63
2023/10/08 11:22:17;;;;;;;7.47;3.67;;;;;;;;;;5105875;28;20202;-63
2023/10/08 11:24:47;;;;;;;6.13;3.67;;;;;;;;;;5107635;28;20678;-63
2023/10/08 11:27:17;;;;;;;7.07;3.57;;;;;;;;;;5107805;28;20200;-63
2023/10/08 11:29:47;;;;;;;6.20;3.80;;;;;;;;;;5104440;28;20204;-64
2023/10/08 11:32:17;;;;;;;8.63;4.53;;;;;;;;;;5105260;28;20230;-63
2023/10/08 11:34:49;;;;;;;6.17;4.17;;;;;;;;;;5110066;28;20197;-63
2023/10/08 11:37:27;;;;;;;8.30;5.47;;;;;;;;;;5105967;28;20207;-63
2023/10/08 11:39:58;;;;;;;8.63;5.07;;;;;;;;;;5105315;28;20219;-63
2023/10/08 11:42:43;;;;;;;5.13;3.57;;;;;;;;;;5107591;28;20230;-63
2023/10/08 11:45:26;;;;;;;4.80;3.00;;;;;;;;;;5106040;28;20239;-63
2023/10/08 11:47:56;;;;;;;5.40;3.80;;;;;;;;;;5105235;28;20246;-63
2023/10/08 11:50:31;;;;;;;10.73;3.67;;;;;;;;;;5105551;28;20630;-63
2023/10/08 11:53:02;;;;;;;7.03;3.90;;;;;;;;;;5107572;28;20336;-64
2023/10/08 11:55:35;;;;;;;5.87;3.47;;;;;;;;;;5117530;28;20623;-63
2023/10/08 11:58:09;;;;;;;4.80;3.10;;;;;;;;;;5116216;28;20201;-64
2023/10/08 12:00:43;;;;;;;5.10;3.10;;;;;;;;;;5105888;28;20220;-63
2023/10/08 12:03:15;;;;;;;14.83;6.00;;;;;;;;;;5109007;28;20200;-64
2023/10/08 12:05:48;;;;;;;6.47;3.17;;;;;;;;;;5102470;28;20198;-64
2023/10/08 12:08:20;;;;;;;8.47;3.37;;;;;;;;;;5105818;28;20209;-64
2023/10/08 12:10:53;;;;;;;7.17;3.13;;;;;;;;;;5111424;28;20214;-64
2023/10/08 12:13:25;;;;;;;22.40;3.60;;;;;;;;;;5108712;28;20194;-62
2023/10/08 12:16:05;;;;;;;7.90;3.13;;;;;;;;;;5108845;28;20196;-65
2023/10/08 12:18:39;;;;;;;7.67;3.83;;;;;;;;;;5117485;28;20212;-66
2023/10/08 12:21:10;;;;;;;7.80;3.93;;;;;;;;;;5108863;28;20226;-65
2023/10/08 12:23:40;;;;;;;7.23;4.00;;;;;;;;;;5109173;28;20199;-64
2023/10/08 12:26:09;;;;;;;8.00;3.70;;;;;;;;;;5109779;28;20564;-65
2023/10/08 12:28:37;;;;;;;7.10;5.20;;;;;;;;;;5118023;28;20673;-65
2023/10/08 12:31:05;;;;;;;8.23;4.57;;;;;;;;;;5120510;28;20263;-64
2023/10/08 12:33:33;;;;;;;6.27;3.33;;;;;;;;;;5120289;28;20306;-65
2023/10/08 12:36:10;;;;;;;6.13;3.57;;;;;;;;;;5112673;28;20565;-64
2023/10/08 12:38:45;;;;;;;5.83;4.00;;;;;;;;;;5115957;28;20206;-65
2023/10/08 12:41:13;;;;;;;7.50;3.50;;;;;;;;;;5120281;28;20234;-64
2023/10/08 12:43:42;;;;;;;5.13;3.80;;;;;;;;;;5119550;28;20636;-65
2023/10/08 12:46:17;;;;;;;7.33;3.70;;;;;;;;;;5120170;27;20204;-64
2023/10/08 12:48:48;;;;;;;14.83;7.40;;;;;;;;;;5120367;28;20205;-64
2023/10/08 12:51:16;;;;;;;14.90;7.53;;;;;;;;;;5120100;28;20235;-64
2023/10/08 12:53:58;;;;;;;6.90;4.33;;;;;;;;;;5119850;28;20258;-64
2023/10/08 12:56:35;;;;;;;7.33;4.13;;;;;;;;;;5119886;28;20285;-64
2023/10/08 12:59:07;;;;;;;8.40;3.97;;;;;;;;;;5113385;28;20202;-64
2023/10/08 13:01:36;;;;;;;8.40;4.03;;;;;;;;;;5108503;28;20218;-64
2023/10/08 13:04:15;;;;;;;4.77;3.37;;;;;;;;;;5109112;28;20287;-64
2023/10/08 13:06:45;;;;;;;6.77;3.80;;;;;;;;;;5105646;28;20220;-64
2023/10/08 13:09:15;;;;;;;8.70;4.03;;;;;;;;;;5108522;28;20198;-64
2023/10/08 13:11:43;;;;;;;8.73;3.00;;;;;;;;;;5111979;28;20244;-64
2023/10/08 13:14:12;;;;;;;4.73;3.63;;;;;;;;;;5108960;28;20205;-66
2023/10/08 13:16:41;;;;;;;8.33;3.80;;;;;;;;;;5108805;28;20255;-65
2023/10/08 13:19:09;;;;;;;6.10;3.57;;;;;;;;;;5108848;28;20218;-65
2023/10/08 13:21:38;;;;;;;8.50;4.27;;;;;;;;;;5112041;28;20295;-65
2023/10/08 13:24:08;;;;;;;8.50;4.20;;;;;;;;;;5107891;28;20202;-65
2023/10/08 13:26:38;;;;;;;7.47;3.67;;;;;;;;;;5109426;28;20228;-66
2023/10/08 13:29:09;;;;;;;5.87;3.30;;;;;;;;;;5108079;28;20211;-65
2023/10/08 13:31:37;;;;;;;6.33;3.40;;;;;;;;;;5113130;28;20210;-66
2023/10/08 13:34:08;;;;;;;8.17;4.57;;;;;;;;;;5108083;28;20199;-65
2023/10/08 13:36:38;;;;;;;10.67;4.73;;;;;;;;;;5107696;28;20254;-66
2023/10/08 13:39:09;;;;;;;12.87;4.53;;;;;;;;;;5117591;28;20209;-66
2023/10/08 13:41:41;;;;;;;10.93;3.67;;;;;;;;;;5105310;28;20755;-65
2023/10/08 13:44:12;;;;;;;10.23;3.97;;;;;;;;;;5117192;28;20200;-66
2023/10/08 13:46:44;;;;;;;196.33;100.43;;;;;;;;;;5118611;28;20204;-65
2023/10/08 13:49:14;;;;;;;15.47;9.40;;;;;;;;;;5115994;27;21232;-65
2023/10/08 13:51:44;;;;;;;7.97;3.87;;;;;;;;;;5118673;28;20270;-64
2023/10/08 13:54:12;;;;;;;8.67;4.40;;;;;;;;;;5112992;28;20265;-63
2023/10/08 13:56:47;;;;;;;8.70;3.70;;;;;;;;;;5118944;28;20210;-64
2023/10/08 13:59:16;;;;;;;7.67;3.60;;;;;;;;;;5116146;28;20212;-64
2023/10/08 14:01:47;;;;;;;4.70;2.67;;;;;;;;;;5117881;28;20238;-64
2023/10/08 14:04:19;;;;;;;6.87;3.20;;;;;;;;;;5117652;28;20208;-63
2023/10/08 14:06:51;;;;;;;9.30;4.20;;;;;;;;;;5117759;27;20193;-66
2023/10/08 14:09:22;;;;;;;12.73;3.50;;;;;;;;;;5117342;28;20283;-64
2023/10/08 14:11:52;;;;;;;9.70;3.10;;;;;;;;;;5118003;28;20326;-64
2023/10/08 14:14:24;;;;;;;7.60;4.33;;;;;;;;;;5117834;28;20204;-64
2023/10/08 14:16:53;;;;;;;13.00;3.50;;;;;;;;;;5118020;28;20201;-64
2023/10/08 14:19:28;;;;;;;7.13;3.03;;;;;;;;;;5105420;28;20565;-64
2023/10/08 14:22:03;;;;;;;9.20;3.20;;;;;;;;;;5110429;28;20233;-64
2023/10/08 14:24:35;;;;;;;5.57;3.47;;;;;;;;;;5117785;28;20206;-63
2023/10/08 14:27:09;;;;;;;7.30;3.77;;;;;;;;;;5117631;28;20282;-64
2023/10/08 14:29:40;;;;;;;9.47;3.17;;;;;;;;;;5118744;28;20210;-64
2023/10/08 14:32:09;;;;;;;8.93;2.80;;;;;;;;;;5118150;28;20268;-64
2023/10/08 14:42:56;;;;;;;6.53;2.53;;;;;;;;;;5117237;28;20632;-63
2023/10/08 14:45:27;;;;;;;5.43;3.70;;;;;;;;;;5118266;28;20248;-65
2023/10/08 14:47:57;;;;;;;7.07;3.73;;;;;;;;;;5118298;28;20214;-65
2023/10/08 14:50:27;;;;;;;7.73;3.17;;;;;;;;;;5118335;28;20274;-65
2023/10/08 14:52:56;;;;;;;12.33;3.57;;;;;;;;;;5110264;28;20209;-65
2023/10/08 14:55:24;;;;;;;9.77;3.60;;;;;;;;;;5115187;28;20679;-65
2023/10/08 14:57:52;;;;;;;8.90;3.17;;;;;;;;;;5115054;28;20280;-65
2023/10/08 15:00:24;;;;;;;5.87;3.37;;;;;;;;;;5117113;27;20222;-65
2023/10/08 15:02:54;;;;;;;4.67;3.10;;;;;;;;;;5117279;28;20206;-65
2023/10/08 15:05:23;;;;;;;5.17;3.30;;;;;;;;;;5117501;28;20233;-65
2023/10/08 15:07:51;;;;;;;7.10;3.07;;;;;;;;;;5117207;28;20208;-64
2023/10/08 15:10:21;;;;;;;4.93;2.70;;;;;;;;;;5116977;28;20704;-63
2023/10/08 15:12:51;;;;;;;12.57;4.03;;;;;;;;;;5116982;28;20549;-64
2023/10/08 15:15:23;;;;;;;9.20;3.90;;;;;;;;;;5118236;28;20204;-65
2023/10/08 15:17:54;;;;;;;6.70;3.57;;;;;;;;;;5116560;28;20287;-65
2023/10/08 15:20:23;;;;;;;8.93;3.77;;;;;;;;;;5116698;28;20243;-63
2023/10/08 15:22:52;;;;;;;10.37;3.73;;;;;;;;;;5116317;28;20283;-64
2023/10/08 15:25:20;;;;;;;6.13;3.90;;;;;;;;;;5117883;28;20215;-64
2023/10/08 15:27:48;;;;;;;9.57;3.87;;;;;;;;;;5116288;28;20228;-64